Time;durP1;ratioP1;P1;durP2;ratioP2;P2;SDS_P1;SDS_P2;PMS_P1;PMS_P2;Temp;Humidity;BMP_temperature;BMP_pressure;BME280_temperature;BME280_humidity;BME280_pressure;Samples;Min_cycle;Max_cycle;Signal;HPM_P1;HPM_P2
2023/07/23 00:01:30;;;;;;;6.80;3.70;;;;;;;12.63;60.48;100060.27;131559;1250;107416;-79
2023/07/23 00:04:36;;;;;;;4.30;3.70;;;;;;;12.60;60.40;100062.55;131225;1248;107491;-78
2023/07/23 00:07:41;;;;;;;5.30;3.70;;;;;;;12.56;60.62;100060.27;131230;1252;107530;-78
2023/07/23 00:10:47;;;;;;;5.20;3.30;;;;;;;12.53;60.57;100055.12;131221;1252;107504;-78
2023/07/23 00:13:52;;;;;;;4.70;3.00;;;;;;;12.49;60.83;100054.66;131175;1248;107536;-78
2023/07/23 00:16:58;;;;;;;4.50;3.30;;;;;;;12.45;60.75;100054.16;131217;1250;107279;-78
2023/07/23 00:20:04;;;;;;;3.90;3.50;;;;;;;12.47;60.73;100054.72;131261;1250;105968;-78
2023/07/23 00:23:10;;;;;;;4.50;3.60;;;;;;;12.46;60.99;100055.88;131111;1248;107548;-78
2023/07/23 00:26:15;;;;;;;4.00;3.50;;;;;;;12.47;60.90;100051.09;131220;1251;107515;-78
2023/07/23 00:29:21;;;;;;;5.30;3.70;;;;;;;12.46;61.12;100051.09;131140;1252;107558;-78
2023/07/23 00:32:27;;;;;;;4.60;3.60;;;;;;;12.48;61.09;100047.23;131209;1252;107434;-78
2023/07/23 00:35:32;;;;;;;4.90;4.00;;;;;;;12.45;60.97;100047.95;130876;1248;244509;-78
2023/07/23 00:38:38;;;;;;;5.40;3.90;;;;;;;12.39;60.95;100042.77;131167;1251;107576;-78
2023/07/23 00:41:43;;;;;;;5.10;4.20;;;;;;;12.34;61.17;100045.09;131278;1248;107285;-77
2023/07/23 00:44:49;;;;;;;4.60;3.50;;;;;;;12.30;61.36;100046.99;131293;1250;107136;-77
2023/07/23 00:47:55;;;;;;;5.20;4.30;;;;;;;12.21;61.49;100044.87;131180;1252;107329;-77
2023/07/23 00:51:01;;;;;;;8.70;4.70;;;;;;;12.16;61.55;100043.64;131196;1249;107403;-77
2023/07/23 00:54:07;;;;;;;6.70;4.10;;;;;;;12.12;61.49;100041.43;131255;1250;107275;-77
2023/07/23 00:57:14;;;;;;;8.20;4.20;;;;;;;12.09;61.58;100037.79;131259;1252;107269;-77
2023/07/23 01:00:19;;;;;;;4.50;4.00;;;;;;;12.07;61.73;100032.55;131120;1251;107378;-77
2023/07/23 01:03:26;;;;;;;5.40;4.10;;;;;;;12.02;61.86;100030.00;131194;1253;106393;-77
2023/07/23 01:06:34;;;;;;;6.10;4.80;;;;;;;12.00;61.83;100032.38;131214;1252;107470;-77
2023/07/23 01:09:40;;;;;;;6.30;4.50;;;;;;;11.97;61.85;100032.45;131114;1248;106516;-77
2023/07/23 01:12:46;;;;;;;5.20;4.20;;;;;;;11.95;62.14;100026.98;131219;1251;108646;-77
2023/07/23 01:15:53;;;;;;;5.20;4.00;;;;;;;11.93;62.02;100023.99;131052;1251;106629;-77
2023/07/23 01:18:59;;;;;;;7.60;4.20;;;;;;;11.91;62.25;100022.80;131166;1250;107365;-79
2023/07/23 01:22:07;;;;;;;5.10;4.10;;;;;;;11.89;62.18;100026.75;131184;1251;107441;-77
2023/07/23 01:25:13;;;;;;;5.80;4.50;;;;;;;11.89;62.38;100022.67;131206;1251;107237;-77
2023/07/23 01:28:18;;;;;;;5.40;4.40;;;;;;;11.91;62.21;100023.02;131191;1252;107769;-77
2023/07/23 01:31:24;;;;;;;6.40;4.80;;;;;;;11.91;62.53;100018.61;131135;1252;108622;-78
2023/07/23 01:34:30;;;;;;;5.90;4.70;;;;;;;11.89;62.53;100021.05;131175;1251;106680;-79
2023/07/23 01:37:36;;;;;;;5.00;4.20;;;;;;;11.86;62.55;100018.05;131211;1247;107267;-78
2023/07/23 01:40:41;;;;;;;6.00;4.70;;;;;;;11.85;62.65;100013.29;131197;1252;106904;-78
2023/07/23 01:43:47;;;;;;;6.20;4.60;;;;;;;11.83;62.67;100015.67;131163;1248;107220;-78
2023/07/23 01:46:53;;;;;;;5.80;4.40;;;;;;;11.81;62.53;100017.48;131211;1252;107555;-78
2023/07/23 01:49:59;;;;;;;6.60;4.80;;;;;;;11.75;62.95;100021.81;131141;1254;106724;-78
2023/07/23 01:53:04;;;;;;;5.90;4.50;;;;;;;11.70;62.96;100020.74;131191;1251;106705;-77
2023/07/23 01:56:10;;;;;;;5.60;4.80;;;;;;;11.68;62.80;100021.91;131158;1252;107630;-78
2023/07/23 01:59:15;;;;;;;6.60;4.90;;;;;;;11.65;62.97;100018.70;131098;1250;107336;-78
2023/07/23 02:02:21;;;;;;;5.70;4.80;;;;;;;11.60;63.39;100020.63;131086;1259;107234;-78
2023/07/23 02:05:27;;;;;;;6.00;4.60;;;;;;;11.57;63.17;100017.44;131246;1251;106518;-77
2023/07/23 02:08:32;;;;;;;6.40;4.50;;;;;;;11.54;63.55;100018.46;131182;1253;107580;-78
2023/07/23 02:11:38;;;;;;;5.70;4.20;;;;;;;11.51;63.56;100013.77;131145;1252;107493;-78
2023/07/23 02:14:43;;;;;;;5.30;4.50;;;;;;;11.50;63.44;100008.30;131153;1252;108788;-78
2023/07/23 02:17:49;;;;;;;5.50;4.40;;;;;;;11.48;63.52;100009.77;131090;1250;107509;-77
2023/07/23 02:20:54;;;;;;;5.20;4.40;;;;;;;11.48;63.69;100012.30;131177;1248;107340;-78
2023/07/23 02:24:00;;;;;;;6.30;4.60;;;;;;;11.49;63.79;100013.07;131199;1252;107460;-78
2023/07/23 02:27:06;;;;;;;5.90;4.60;;;;;;;11.53;63.63;100017.46;131165;1253;107249;-77
2023/07/23 02:30:13;;;;;;;5.30;4.60;;;;;;;11.53;63.44;100020.70;131179;1252;107556;-77
2023/07/23 02:33:19;;;;;;;6.60;5.00;;;;;;;11.53;63.77;100016.10;131250;1250;107505;-77
2023/07/23 02:36:25;;;;;;;6.40;4.70;;;;;;;11.52;63.89;100017.21;131081;1253;105963;-78
2023/07/23 02:39:31;;;;;;;6.70;5.40;;;;;;;11.53;63.99;100014.64;131255;1253;106070;-78
2023/07/23 02:42:37;;;;;;;6.80;5.30;;;;;;;11.52;63.87;100017.02;131313;1250;106205;-78
2023/07/23 02:45:42;;;;;;;5.90;5.20;;;;;;;11.49;64.17;100012.91;131240;1253;106768;-77
2023/07/23 02:48:48;;;;;;;7.20;5.10;;;;;;;11.47;63.99;100010.80;131173;1260;107545;-78
2023/07/23 02:51:54;;;;;;;5.90;4.90;;;;;;;11.45;64.17;100009.98;131078;1251;107592;-77
2023/07/23 02:54:59;;;;;;;5.80;4.70;;;;;;;11.44;64.23;100009.55;131122;1248;107569;-77
2023/07/23 02:58:05;;;;;;;6.70;4.40;;;;;;;11.45;64.36;100008.86;131159;1250;107397;-77
2023/07/23 03:01:10;;;;;;;5.30;4.30;;;;;;;11.47;64.48;100011.70;131092;1255;107143;-78
2023/07/23 03:04:16;;;;;;;6.00;4.60;;;;;;;11.49;64.52;100014.55;131257;1250;107267;-78
2023/07/23 03:07:22;;;;;;;7.20;4.80;;;;;;;11.53;64.57;100013.05;131067;1253;107570;-78
2023/07/23 03:10:27;;;;;;;6.60;4.80;;;;;;;11.58;64.79;100015.29;131111;1248;107536;-78
2023/07/23 03:13:33;;;;;;;6.20;4.90;;;;;;;11.63;64.68;100015.41;131193;1254;107320;-78
2023/07/23 03:16:40;;;;;;;8.00;5.30;;;;;;;11.67;64.92;100008.17;131182;1251;107427;-78
2023/07/23 03:19:45;;;;;;;6.60;5.20;;;;;;;11.71;64.93;100006.42;131081;1254;107386;-78
2023/07/23 03:22:51;;;;;;;7.90;5.10;;;;;;;11.76;64.81;100005.52;131144;1249;107447;-77
2023/07/23 03:25:56;;;;;;;7.40;5.50;;;;;;;11.79;65.09;100003.23;131196;1254;107522;-77
2023/07/23 03:29:01;;;;;;;7.30;5.30;;;;;;;11.81;65.12;100000.55;131169;1252;107549;-77
2023/07/23 03:32:08;;;;;;;8.10;5.00;;;;;;;11.85;65.11;99998.36;131179;1248;106537;-78
2023/07/23 03:35:14;;;;;;;7.10;5.00;;;;;;;11.90;65.24;99998.75;131092;1252;107518;-78
2023/07/23 03:38:19;;;;;;;6.20;5.00;;;;;;;11.95;65.24;99998.02;131377;1254;106685;-78
2023/07/23 03:41:25;;;;;;;7.00;5.00;;;;;;;11.99;65.43;99996.69;131109;1252;107704;-78
2023/07/23 03:44:30;;;;;;;6.40;4.70;;;;;;;12.04;65.30;99998.61;131147;1253;107538;-79
2023/07/23 03:47:35;;;;;;;5.90;4.20;;;;;;;12.15;65.57;99996.16;131236;1252;107129;-78
2023/07/23 03:50:41;;;;;;;5.50;4.40;;;;;;;12.31;65.52;99997.44;131277;1254;107486;-78
2023/07/23 03:53:47;;;;;;;5.80;4.50;;;;;;;12.49;65.65;99995.25;131261;1251;107577;-78
2023/07/23 03:56:52;;;;;;;6.40;4.70;;;;;;;12.68;65.68;99995.29;131292;1251;107536;-77
2023/07/23 03:59:58;;;;;;;5.70;4.70;;;;;;;12.90;65.71;99994.77;131267;1251;107517;-78
2023/07/23 04:03:03;;;;;;;6.10;5.00;;;;;;;13.14;65.72;99993.96;131251;1252;107743;-80
2023/07/23 04:06:09;;;;;;;5.60;4.60;;;;;;;13.34;65.71;99991.48;131286;1253;107279;-78
2023/07/23 04:09:15;;;;;;;5.60;4.50;;;;;;;13.54;65.61;99989.04;131095;1254;107515;-78
2023/07/23 04:12:22;;;;;;;5.70;4.90;;;;;;;13.77;65.76;99992.23;131338;1253;107553;-78
2023/07/23 04:15:32;;;;;;;6.10;4.80;;;;;;;14.06;65.92;99992.23;131497;1249;107522;-79
2023/07/23 04:18:48;;;;;;;5.30;4.70;;;;;;;14.31;65.45;99988.89;131399;1252;107466;-79
2023/07/23 04:21:56;;;;;;;6.00;4.30;;;;;;;14.58;65.61;99987.98;131094;1252;107530;-79
2023/07/23 04:25:01;;;;;;;4.20;3.60;;;;;;;14.87;65.75;99985.96;131222;1250;107412;-79
2023/07/23 04:28:07;;;;;;;4.90;4.20;;;;;;;15.17;65.63;99979.46;131831;1252;107373;-80
2023/07/23 04:31:13;;;;;;;5.20;4.60;;;;;;;15.54;65.59;99983.59;131304;1252;107516;-79
2023/07/23 04:34:19;;;;;;;6.60;4.80;;;;;;;15.90;65.41;99982.25;131225;1250;107371;-79
2023/07/23 04:37:24;;;;;;;4.90;4.40;;;;;;;16.23;65.41;99980.10;131324;1252;107557;-79
2023/07/23 04:40:34;;;;;;;4.80;4.30;;;;;;;16.56;65.38;99979.95;131421;1247;107541;-81
2023/07/23 04:43:41;;;;;;;5.00;4.50;;;;;;;16.79;65.03;99980.96;131148;1255;107645;-79
2023/07/23 04:46:46;;;;;;;5.80;4.20;;;;;;;16.96;64.88;99980.52;131268;1251;107528;-79
2023/07/23 04:49:52;;;;;;;5.30;4.20;;;;;;;17.17;64.69;99984.45;131287;1252;107170;-79
2023/07/23 04:52:57;;;;;;;5.00;4.50;;;;;;;17.37;64.48;99984.13;131212;1252;107541;-79
2023/07/23 04:56:05;;;;;;;5.50;4.70;;;;;;;17.51;64.39;99983.06;131136;1252;106524;-79
2023/07/23 04:59:10;;;;;;;5.00;4.50;;;;;;;17.59;64.22;99980.50;131154;1252;107544;-79
2023/07/23 05:02:16;;;;;;;6.90;4.20;;;;;;;17.77;64.11;99977.70;131594;1250;107405;-79
2023/07/23 05:05:21;;;;;;;7.30;4.50;;;;;;;17.95;63.82;99980.47;131080;1252;107551;-79
2023/07/23 05:08:27;;;;;;;4.60;4.10;;;;;;;18.03;63.56;99979.84;131318;1252;106772;-79
2023/07/23 05:11:34;;;;;;;5.20;4.10;;;;;;;18.11;63.61;99981.51;131227;1255;108562;-79
2023/07/23 05:14:40;;;;;;;4.20;3.80;;;;;;;18.17;63.30;99976.13;131325;1252;106305;-80
2023/07/23 05:17:45;;;;;;;5.50;3.70;;;;;;;18.24;63.17;99975.33;131295;1252;107613;-79
2023/07/23 05:20:51;;;;;;;5.90;4.10;;;;;;;18.27;63.02;99974.45;131209;1253;107221;-79
2023/07/23 05:23:56;;;;;;;4.80;3.60;;;;;;;18.33;63.08;99975.30;131309;1252;107574;-79
2023/07/23 05:27:02;;;;;;;5.20;4.40;;;;;;;18.48;63.15;99972.02;131328;1252;107523;-77
2023/07/23 05:30:09;;;;;;;5.10;4.00;;;;;;;18.61;63.02;99975.79;131174;1265;108639;-79
2023/07/23 05:33:14;;;;;;;5.40;4.10;;;;;;;18.72;62.80;99974.29;131179;1250;107550;-79
2023/07/23 05:36:20;;;;;;;4.80;4.20;;;;;;;18.78;62.69;99975.43;131127;1252;107491;-79
2023/07/23 05:39:25;;;;;;;5.50;4.40;;;;;;;18.88;62.54;99969.70;131216;1253;107587;-78
2023/07/23 05:42:31;;;;;;;4.40;3.80;;;;;;;19.00;62.36;99972.68;131216;1252;105906;-79
2023/07/23 05:45:36;;;;;;;6.20;3.80;;;;;;;19.08;62.09;99972.59;131174;1253;107504;-79
2023/07/23 05:48:42;;;;;;;4.30;3.90;;;;;;;19.08;61.82;99971.34;131201;1252;107551;-79
2023/07/23 05:51:48;;;;;;;4.50;4.10;;;;;;;19.13;61.91;99970.65;131128;1253;107637;-78
2023/07/23 05:54:54;;;;;;;4.30;3.90;;;;;;;19.23;61.75;99964.27;131178;1252;107476;-79
2023/07/23 05:57:59;;;;;;;4.20;3.80;;;;;;;19.39;61.89;99961.49;131202;1252;107565;-79
2023/07/23 06:01:05;;;;;;;4.70;3.90;;;;;;;19.59;61.59;99963.08;131223;1254;107462;-79
2023/07/23 06:04:11;;;;;;;4.30;3.60;;;;;;;19.82;61.19;99959.81;131174;1252;107681;-78
2023/07/23 06:07:16;;;;;;;5.00;4.50;;;;;;;20.05;61.00;99960.77;131150;1254;107528;-79
2023/07/23 06:10:22;;;;;;;4.40;3.80;;;;;;;20.30;60.52;99953.69;131175;1250;107529;-79
2023/07/23 06:13:27;;;;;;;5.40;3.60;;;;;;;20.51;60.14;99945.09;131149;1252;107525;-78
2023/07/23 06:16:33;;;;;;;6.10;3.80;;;;;;;20.65;59.86;99946.71;131267;1248;107538;-79
2023/07/23 06:19:38;;;;;;;4.40;3.60;;;;;;;20.72;59.73;99945.41;131134;1252;107452;-79
2023/07/23 06:22:44;;;;;;;3.90;3.50;;;;;;;20.78;59.55;99942.92;131195;1253;107553;-78
2023/07/23 06:25:56;;;;;;;4.10;3.70;;;;;;;20.86;59.04;99937.65;131139;1252;107525;-78
2023/07/23 06:29:01;;;;;;;3.80;3.40;;;;;;;20.93;59.00;99934.34;131200;1253;107526;-78
2023/07/23 06:32:08;;;;;;;3.90;3.20;;;;;;;21.04;58.78;99936.20;131314;1248;106531;-79
2023/07/23 06:35:14;;;;;;;3.70;3.30;;;;;;;21.14;58.39;99929.75;131039;1255;107535;-80
2023/07/23 06:38:19;;;;;;;4.00;3.50;;;;;;;21.23;57.77;99919.27;131251;1252;106778;-81
2023/07/23 06:41:26;;;;;;;3.30;3.00;;;;;;;21.34;57.79;99921.86;131303;1261;107597;-79
2023/07/23 06:44:31;;;;;;;4.00;3.10;;;;;;;21.50;57.16;99920.05;131358;1253;107538;-80
2023/07/23 06:47:38;;;;;;;6.60;3.30;;;;;;;21.60;56.64;99918.36;131319;1260;107247;-80
2023/07/23 06:50:45;;;;;;;5.00;3.50;;;;;;;21.71;56.43;99920.35;131452;1252;106980;-80
2023/07/23 06:53:51;;;;;;;3.50;3.00;;;;;;;21.80;56.29;99916.88;131280;1252;107639;-79
2023/07/23 06:56:56;;;;;;;4.60;3.40;;;;;;;21.90;55.90;99912.98;131298;1252;107642;-79
2023/07/23 07:00:04;;;;;;;3.50;3.20;;;;;;;22.00;56.01;99910.07;131466;1251;107551;-81
2023/07/23 07:03:09;;;;;;;4.40;2.90;;;;;;;22.12;55.65;99905.66;131500;1251;108580;-80
2023/07/23 07:06:15;;;;;;;3.50;3.20;;;;;;;22.26;55.26;99902.88;132146;1251;105348;-80
2023/07/23 07:09:21;;;;;;;4.10;3.20;;;;;;;22.33;55.09;99898.64;131789;1250;107445;-80
2023/07/23 07:12:28;;;;;;;4.00;2.80;;;;;;;22.43;54.91;99897.81;131509;1253;106342;-79
2023/07/23 07:15:34;;;;;;;3.60;3.00;;;;;;;22.59;54.87;99891.02;131345;1253;107427;-79
2023/07/23 07:18:40;;;;;;;3.60;2.90;;;;;;;22.75;54.95;99883.95;131357;1253;107569;-79
2023/07/23 07:21:45;;;;;;;4.50;2.90;;;;;;;22.85;54.21;99878.58;131413;1252;106063;-80
2023/07/23 07:24:51;;;;;;;3.40;3.10;;;;;;;22.90;53.62;99877.65;131404;1248;107234;-79
2023/07/23 07:27:56;;;;;;;4.10;3.60;;;;;;;22.91;53.49;99880.05;131456;1253;107399;-79
2023/07/23 07:31:04;;;;;;;4.30;3.30;;;;;;;22.89;53.42;99875.60;131592;1253;107644;-80
2023/07/23 07:34:09;;;;;;;4.50;3.40;;;;;;;22.83;53.30;99876.14;131456;1250;107211;-81
2023/07/23 07:37:15;;;;;;;4.00;3.60;;;;;;;22.74;52.86;99877.17;131412;1253;106537;-80
2023/07/23 07:40:20;;;;;;;6.90;3.80;;;;;;;22.65;52.63;99869.50;131452;1252;107558;-80
2023/07/23 07:43:26;;;;;;;3.70;3.30;;;;;;;22.63;52.59;99867.55;131446;1252;107540;-82
2023/07/23 07:46:31;;;;;;;3.80;3.10;;;;;;;22.67;52.32;99864.30;131403;1252;107567;-81
2023/07/23 07:49:37;;;;;;;5.60;3.70;;;;;;;22.77;52.67;99858.35;131430;1252;106452;-80
2023/07/23 07:52:42;;;;;;;3.90;3.50;;;;;;;22.90;51.89;99857.60;131387;1252;107542;-80
2023/07/23 07:55:48;;;;;;;4.70;3.00;;;;;;;23.03;51.90;99854.98;131502;1253;107532;-80
2023/07/23 07:58:54;;;;;;;3.90;3.20;;;;;;;23.19;51.33;99852.23;131454;1248;107525;-79
2023/07/23 08:02:01;;;;;;;4.40;2.90;;;;;;;23.35;51.39;99850.63;131484;1252;107547;-80
2023/07/23 08:05:09;;;;;;;3.50;3.00;;;;;;;23.56;51.06;99847.31;131554;1250;107451;-79
2023/07/23 08:08:17;;;;;;;4.90;3.00;;;;;;;23.79;51.04;99843.92;131580;1248;107504;-80
2023/07/23 08:11:25;;;;;;;4.10;3.70;;;;;;;24.04;51.14;99845.97;131526;1248;107354;-80
2023/07/23 08:14:31;;;;;;;3.70;3.20;;;;;;;24.25;50.88;99848.36;131497;1253;107917;-80
2023/07/23 08:17:37;;;;;;;3.50;3.20;;;;;;;24.35;50.03;99843.27;131600;1253;106524;-79
2023/07/23 08:20:44;;;;;;;3.60;3.00;;;;;;;24.38;49.91;99842.67;131562;1250;107214;-78
2023/07/23 08:23:51;;;;;;;3.60;3.10;;;;;;;24.36;49.26;99843.27;131590;1250;107536;-78
2023/07/23 08:27:01;;;;;;;3.60;2.80;;;;;;;24.35;49.36;99837.90;131476;1261;107438;-78
2023/07/23 08:30:09;;;;;;;3.70;3.00;;;;;;;24.43;48.74;99829.72;131670;1248;107543;-79
2023/07/23 08:33:17;;;;;;;3.50;3.20;;;;;;;24.53;48.71;99824.88;131600;1251;106639;-79
2023/07/23 08:36:24;;;;;;;5.80;3.00;;;;;;;24.72;47.90;99825.20;131452;1253;107606;-79
2023/07/23 08:39:30;;;;;;;4.80;3.10;;;;;;;24.90;48.18;99821.56;131396;1251;107555;-80
2023/07/23 08:43:07;;;;;;;3.40;2.80;;;;;;;25.01;47.33;99816.96;131522;1258;107468;-80
2023/07/23 08:46:22;;;;;;;4.30;3.00;;;;;;;25.06;47.58;99807.06;131553;1247;107358;-79
2023/07/23 08:49:30;;;;;;;4.20;3.10;;;;;;;25.22;47.63;99808.03;131584;1253;107624;-79
2023/07/23 08:52:36;;;;;;;3.20;2.90;;;;;;;25.39;47.00;99798.52;131589;1248;107638;-79
2023/07/23 08:55:44;;;;;;;3.50;3.10;;;;;;;25.61;46.67;99801.72;131501;1253;108767;-79
2023/07/23 08:58:50;;;;;;;5.20;3.10;;;;;;;25.85;45.92;99794.11;131500;1254;107452;-79
2023/07/23 09:01:56;;;;;;;3.30;3.00;;;;;;;26.10;45.90;99795.92;131505;1251;107585;-79
2023/07/23 09:05:02;;;;;;;6.80;3.10;;;;;;;26.16;45.38;99791.14;131455;1253;106698;-79
2023/07/23 09:08:08;;;;;;;3.80;2.90;;;;;;;26.12;44.89;99785.88;131429;1252;107497;-79
2023/07/23 09:11:14;;;;;;;3.00;2.70;;;;;;;26.17;44.86;99786.39;131399;1252;107391;-79
2023/07/23 09:14:19;;;;;;;4.10;2.80;;;;;;;26.28;44.98;99785.33;131547;1252;107395;-78
2023/07/23 09:17:25;;;;;;;3.40;3.00;;;;;;;26.42;44.36;99783.45;131389;1260;106895;-79
2023/07/23 09:20:30;;;;;;;3.60;3.10;;;;;;;26.43;43.87;99778.63;131432;1251;107907;-80
2023/07/23 09:23:36;;;;;;;3.20;2.90;;;;;;;26.51;43.95;99778.50;131420;1254;107424;-79
2023/07/23 09:26:42;;;;;;;6.10;3.00;;;;;;;26.59;42.88;99773.33;131478;1250;107572;-79
2023/07/23 09:29:48;;;;;;;3.50;2.80;;;;;;;26.64;42.57;99767.98;131505;1249;107515;-79
2023/07/23 09:33:01;;;;;;;3.10;2.60;;;;;;;26.74;42.66;99762.96;131598;1248;107447;-79
2023/07/23 09:36:07;;;;;;;3.50;2.80;;;;;;;26.76;42.32;99757.98;131401;1254;106705;-79
2023/07/23 09:39:13;;;;;;;3.80;3.00;;;;;;;26.67;42.52;99750.09;131406;1250;106628;-79
2023/07/23 09:42:23;;;;;;;3.30;2.80;;;;;;;26.60;42.15;99748.87;131265;1254;107964;-79
2023/07/23 09:45:31;;;;;;;3.20;2.60;;;;;;;26.57;41.14;99761.44;131639;1250;107581;-79
2023/07/23 09:48:39;;;;;;;4.20;2.60;;;;;;;26.67;41.83;99760.11;131504;1259;107573;-79
2023/07/23 09:51:52;;;;;;;4.20;2.70;;;;;;;26.85;41.53;99752.13;131456;1253;107209;-79
2023/07/23 09:54:58;;;;;;;4.40;2.90;;;;;;;27.01;41.47;99748.63;131519;1259;107440;-79
2023/07/23 09:58:06;;;;;;;5.00;2.50;;;;;;;27.10;41.47;99749.05;131412;1253;107527;-79
2023/07/23 10:01:12;;;;;;;4.00;2.60;;;;;;;27.14;41.29;99743.02;131550;1259;107431;-79
2023/07/23 10:04:19;;;;;;;4.30;2.70;;;;;;;27.14;40.74;99733.55;131493;1254;107356;-79
2023/07/23 10:07:25;;;;;;;5.10;2.70;;;;;;;27.04;40.60;99736.57;131549;1254;107467;-79
2023/07/23 10:10:32;;;;;;;2.90;2.60;;;;;;;26.96;40.41;99737.62;131715;1248;108656;-80
2023/07/23 10:13:38;;;;;;;3.00;2.50;;;;;;;26.92;40.34;99737.35;131545;1252;107519;-80
2023/07/23 10:16:47;;;;;;;3.00;2.70;;;;;;;26.93;40.64;99728.15;131567;1250;107203;-79
2023/07/23 10:19:53;;;;;;;2.90;2.60;;;;;;;27.00;40.52;99724.30;131615;1253;107417;-79
2023/07/23 10:22:59;;;;;;;3.80;2.60;;;;;;;27.15;40.62;99721.45;131683;1253;108101;-80
2023/07/23 10:26:25;;;;;;;4.40;2.70;;;;;;;27.33;40.23;99719.20;131486;1252;107527;-79
2023/07/23 10:29:31;;;;;;;3.70;2.50;;;;;;;27.38;40.01;99716.98;131624;1252;107596;-79
2023/07/23 10:32:36;;;;;;;2.80;2.60;;;;;;;27.33;39.72;99715.96;131442;1248;107513;-78
2023/07/23 10:36:05;;;;;;;4.60;2.70;;;;;;;27.28;40.02;99711.10;131430;1261;107548;-79
2023/07/23 10:39:20;;;;;;;3.70;2.80;;;;;;;27.13;39.81;99712.80;131540;1258;107165;-78
2023/07/23 10:42:42;;;;;;;4.60;2.80;;;;;;;26.92;39.92;99708.21;131520;1254;107439;-79
2023/07/23 10:45:54;;;;;;;5.10;2.80;;;;;;;26.70;40.20;99707.52;131391;1254;107560;-79
2023/07/23 10:49:05;;;;;;;4.40;2.70;;;;;;;26.55;40.23;99706.77;131432;1254;107558;-78
2023/07/23 10:52:19;;;;;;;3.30;2.50;;;;;;;26.35;40.05;99708.27;131384;1252;107547;-78
2023/07/23 10:55:47;;;;;;;3.70;2.60;;;;;;;26.07;39.84;99711.77;131608;1254;107594;-80
2023/07/23 10:58:57;;;;;;;5.10;2.80;;;;;;;25.80;39.26;99715.85;131709;1248;107507;-80
2023/07/23 11:02:09;;;;;;;4.10;2.70;;;;;;;25.60;39.77;99717.34;131511;1254;107528;-80
2023/07/23 11:05:16;;;;;;;2.90;2.60;;;;;;;25.53;39.54;99711.78;131528;1253;107482;-80
2023/07/23 11:08:26;;;;;;;6.40;3.00;;;;;;;25.58;39.64;99711.65;131554;1252;107257;-80
2023/07/23 11:11:38;;;;;;;4.40;2.70;;;;;;;25.66;39.30;99704.75;131505;1252;108557;-81
2023/07/23 11:14:43;;;;;;;3.10;2.60;;;;;;;25.83;39.29;99701.76;131719;1253;107351;-80
2023/07/23 11:17:49;;;;;;;3.30;2.80;;;;;;;26.01;39.12;99695.17;131572;1247;106730;-80
2023/07/23 11:20:56;;;;;;;2.90;2.60;;;;;;;26.16;39.06;99694.29;131565;1252;107695;-79
2023/07/23 11:24:03;;;;;;;4.60;2.80;;;;;;;26.27;39.10;99692.45;131871;1261;106596;-80
2023/07/23 11:27:10;;;;;;;3.60;2.90;;;;;;;26.40;39.25;99691.42;131530;1254;107512;-80
2023/07/23 11:30:16;;;;;;;2.90;2.50;;;;;;;26.46;36.47;99685.52;131691;1253;107230;-79
2023/07/23 11:33:22;;;;;;;4.10;3.00;;;;;;;26.46;38.19;99683.50;131597;1261;107632;-80
2023/07/23 11:36:28;;;;;;;3.70;3.00;;;;;;;26.47;38.52;99689.14;131778;1261;107577;-80
2023/07/23 11:39:34;;;;;;;3.00;2.70;;;;;;;26.39;38.02;99680.64;131656;1254;106623;-80
2023/07/23 11:42:39;;;;;;;2.70;2.50;;;;;;;26.35;38.23;99677.02;131530;1260;107542;-76
2023/07/23 11:45:50;;;;;;;2.80;2.60;;;;;;;26.43;38.49;99681.20;131489;1254;107445;-76
2023/07/23 11:48:56;;;;;;;3.00;2.50;;;;;;;26.52;38.55;99678.73;131518;1254;107278;-76
2023/07/23 11:52:02;;;;;;;3.10;2.50;;;;;;;26.49;38.29;99678.13;131545;1253;107560;-76
2023/07/23 11:55:18;;;;;;;3.80;2.70;;;;;;;26.43;38.34;99673.54;131458;1248;108623;-77
2023/07/23 11:58:24;;;;;;;3.30;3.00;;;;;;;26.52;37.94;99660.80;131534;1255;107261;-76
2023/07/23 12:01:29;;;;;;;6.20;3.00;;;;;;;26.64;37.71;99658.90;131441;1254;107487;-77
2023/07/23 12:04:40;;;;;;;5.00;2.50;;;;;;;26.78;37.22;99655.73;131564;1250;107464;-79
2023/07/23 12:07:46;;;;;;;2.80;2.40;;;;;;;26.88;37.02;99656.81;131465;1254;107331;-78
2023/07/23 12:10:51;;;;;;;3.10;2.70;;;;;;;26.90;35.83;99651.05;131332;1251;107280;-78
2023/07/23 12:13:59;;;;;;;3.00;2.70;;;;;;;26.98;36.11;99647.77;131263;1261;108644;-78
2023/07/23 12:17:05;;;;;;;6.20;2.90;;;;;;;27.08;35.50;99648.88;131251;1252;107325;-78
2023/07/23 12:20:15;;;;;;;2.70;2.40;;;;;;;27.12;36.20;99647.40;131310;1260;107982;-78
2023/07/23 12:23:23;;;;;;;3.10;2.60;;;;;;;27.29;36.27;99646.29;131259;1253;107532;-78
2023/07/23 12:26:29;;;;;;;3.30;2.60;;;;;;;27.40;36.15;99644.66;131188;1260;107409;-78
2023/07/23 12:29:40;;;;;;;3.80;2.30;;;;;;;27.54;36.40;99645.09;131320;1252;107529;-78
2023/07/23 12:32:46;;;;;;;4.10;2.60;;;;;;;27.71;36.37;99642.27;131431;1254;107396;-78
2023/07/23 12:35:52;;;;;;;4.10;2.60;;;;;;;27.96;35.54;99636.25;131309;1248;107072;-78
2023/07/23 12:38:57;;;;;;;3.00;2.30;;;;;;;28.04;35.67;99633.23;131355;1250;107505;-79
2023/07/23 12:42:03;;;;;;;3.70;2.50;;;;;;;28.01;35.57;99633.41;131315;1252;107560;-78
2023/07/23 12:45:10;;;;;;;3.00;2.60;;;;;;;27.95;35.31;99629.39;131324;1253;107507;-78
2023/07/23 12:48:16;;;;;;;3.20;2.50;;;;;;;27.91;35.27;99629.36;131192;1248;107512;-78
2023/07/23 12:51:23;;;;;;;3.60;2.50;;;;;;;27.81;35.27;99626.77;131207;1254;107531;-78
2023/07/23 12:54:29;;;;;;;3.30;2.40;;;;;;;27.74;35.33;99624.66;131476;1259;107518;-79
2023/07/23 12:57:35;;;;;;;2.80;2.30;;;;;;;27.69;34.93;99619.70;131319;1247;107248;-79
2023/07/23 13:00:40;;;;;;;2.90;2.60;;;;;;;27.76;35.43;99618.73;131338;1254;107580;-78
2023/07/23 13:03:46;;;;;;;3.40;2.30;;;;;;;27.90;34.99;99615.87;131503;1250;107305;-78
2023/07/23 13:06:52;;;;;;;2.90;2.40;;;;;;;28.00;34.78;99620.59;131277;1257;107584;-79
2023/07/23 13:09:57;;;;;;;3.80;2.50;;;;;;;28.06;34.98;99612.44;131426;1259;107586;-79
2023/07/23 13:13:03;;;;;;;4.70;2.30;;;;;;;28.09;34.53;99614.71;131477;1259;107440;-78
2023/07/23 13:16:10;;;;;;;2.80;2.40;;;;;;;28.12;34.37;99615.58;131349;1248;107557;-79
2023/07/23 13:19:15;;;;;;;2.70;2.30;;;;;;;28.16;34.62;99609.89;131484;1250;107406;-79
2023/07/23 13:22:21;;;;;;;3.60;2.20;;;;;;;28.23;34.40;99610.39;131428;1248;109378;-79
2023/07/23 13:25:26;;;;;;;3.00;2.40;;;;;;;28.33;34.58;99606.69;131343;1263;107449;-79
2023/07/23 13:28:32;;;;;;;2.90;2.60;;;;;;;28.33;34.30;99602.23;131304;1249;107246;-78
2023/07/23 13:31:38;;;;;;;4.10;2.60;;;;;;;28.28;34.53;99604.98;131457;1250;106803;-80
2023/07/23 13:34:44;;;;;;;3.40;2.70;;;;;;;28.16;33.97;99603.09;131441;1248;107659;-79
2023/07/23 13:37:49;;;;;;;4.70;2.80;;;;;;;28.10;34.37;99604.62;131391;1251;107366;-80
2023/07/23 13:40:55;;;;;;;3.60;2.60;;;;;;;28.09;34.21;99602.92;131465;1247;107531;-79
2023/07/23 13:44:00;;;;;;;3.20;2.80;;;;;;;28.04;34.27;99606.25;131338;1254;107946;-79
2023/07/23 13:47:06;;;;;;;3.50;2.90;;;;;;;28.00;34.34;99604.13;131378;1254;107459;-78
2023/07/23 13:50:12;;;;;;;3.50;2.80;;;;;;;28.10;34.56;99604.77;131351;1251;107680;-78
2023/07/23 13:53:19;;;;;;;3.90;2.90;;;;;;;28.28;34.17;99600.58;131601;1254;108673;-80
2023/07/23 13:56:25;;;;;;;4.70;2.80;;;;;;;28.31;34.49;99596.29;131799;1248;107538;-79
2023/07/23 13:59:34;;;;;;;3.00;2.70;;;;;;;28.30;34.40;99596.77;131807;1251;107976;-79
2023/07/23 14:02:42;;;;;;;3.00;2.40;;;;;;;28.34;34.63;99588.58;131252;1263;106930;-80
2023/07/23 14:05:50;;;;;;;4.90;2.60;;;;;;;28.32;34.27;99587.87;131409;1248;106592;-80
2023/07/23 14:08:56;;;;;;;3.70;2.80;;;;;;;28.15;34.05;99582.74;131246;1253;108406;-82
2023/07/23 14:12:02;;;;;;;3.10;2.80;;;;;;;28.04;34.44;99584.91;131435;1254;107507;-79
2023/07/23 14:15:09;;;;;;;2.60;2.40;;;;;;;28.00;34.29;99578.47;131434;1253;107341;-80